Time;durP1;ratioP1;P1;durP2;ratioP2;P2;SDS_P1;SDS_P2;PMS_P1;PMS_P2;Temp;Humidity;BMP_temperature;BMP_pressure;BME280_temperature;BME280_humidity;BME280_pressure;Samples;Min_cycle;Max_cycle;Signal;HPM_P1;HPM_P2
2023/05/07 05:04:43;;;;;;;;;;;13.00;65.20;;;;;;5072756;28;19970;-72
2023/05/07 05:07:10;;;;;;;;;;;13.10;64.20;;;;;;5089081;28;20407;-73
2023/05/07 05:09:37;;;;;;;;;;;13.10;66.40;;;;;;5096060;28;19919;-73
2023/05/07 05:12:03;;;;;;;;;;;13.10;65.90;;;;;;5113039;28;20323;-73
2023/05/07 05:14:30;;;;;;;;;;;13.10;66.90;;;;;;5095512;28;19909;-74
2023/05/07 05:16:57;;;;;;;;;;;13.10;63.70;;;;;;5092056;28;20330;-74
2023/05/07 05:19:23;;;;;;;;;;;13.20;61.40;;;;;;5092287;28;19912;-74
2023/05/07 05:21:50;;;;;;;;;;;13.20;61.50;;;;;;5092101;28;20301;-73
2023/05/07 05:24:17;;;;;;;;;;;13.20;58.30;;;;;;5092076;28;19913;-74
2023/05/07 05:26:44;;;;;;;;;;;13.30;58.70;;;;;;5101828;28;19920;-73
2023/05/07 05:29:11;;;;;;;;;;;13.20;61.50;;;;;;5107370;28;19919;-73
2023/05/07 05:31:38;;;;;;;;;;;13.30;58.80;;;;;;5105120;28;20388;-78
2023/05/07 05:34:04;;;;;;;;;;;13.30;59.40;;;;;;5095347;28;19962;-76
2023/05/07 05:36:31;;;;;;;;;;;13.30;59.70;;;;;;5109824;28;19916;-75
2023/05/07 05:38:58;;;;;;;;;;;13.40;60.90;;;;;;5110632;28;20009;-73
2023/05/07 05:41:25;;;;;;;;;;;13.40;60.10;;;;;;5095363;28;19916;-73
2023/05/07 05:43:51;;;;;;;;;;;13.40;60.30;;;;;;5076263;28;19918;-73
2023/05/07 05:46:18;;;;;;;;;;;13.30;58.10;;;;;;5102104;28;20452;-73
2023/05/07 05:48:45;;;;;;;;;;;13.40;59.40;;;;;;5079961;28;19968;-73
2023/05/07 05:51:12;;;;;;;;;;;13.40;59.40;;;;;;5101936;28;19916;-73
2023/05/07 05:53:38;;;;;;;;;;;13.40;59.10;;;;;;5088997;28;19916;-73
2023/05/07 05:56:05;;;;;;;;;;;13.40;59.00;;;;;;5095702;28;20333;-73
2023/05/07 05:58:32;;;;;;;;;;;13.50;58.10;;;;;;5108646;28;19923;-72
2023/05/07 06:00:59;;;;;;;;;;;13.50;58.50;;;;;;5108453;28;19931;-73
2023/05/07 10:43:49;;;;;;;;;;;11.70;63.70;;;;;;5078322;28;19967;-74
2023/05/07 10:46:17;;;;;;;;;;;11.60;64.50;;;;;;5072026;28;19912;-74
2023/05/07 10:49:02;;;;;;;;;;;11.60;64.10;;;;;;5070002;28;19912;-74
2023/05/07 10:51:32;;;;;;;;;;;11.60;63.30;;;;;;5086646;28;19978;-74
2023/05/07 10:54:11;;;;;;;;;;;11.50;63.20;;;;;;5073799;28;19973;-74
2023/05/07 10:56:38;;;;;;;;;;;11.60;63.50;;;;;;5089510;28;19920;-73
2023/05/07 10:59:20;;;;;;;;;;;11.50;63.40;;;;;;5085364;28;19921;-73
2023/05/07 11:02:02;;;;;;;;;;;11.50;63.30;;;;;;5083682;28;19908;-74
2023/05/07 11:04:31;;;;;;;;;;;11.50;63.50;;;;;;5073128;28;20325;-74
2023/05/07 11:07:10;;;;;;;;;;;11.50;62.50;;;;;;5055261;28;19919;-73
2023/05/07 11:09:52;;;;;;;;;;;11.40;62.50;;;;;;5072875;28;19943;-74
2023/05/07 11:12:37;;;;;;;;;;;11.30;62.40;;;;;;5076664;28;20002;-73
2023/05/07 11:15:10;;;;;;;;;;;11.30;63.20;;;;;;5082602;28;20430;-74
2023/05/07 11:17:55;;;;;;;;;;;11.30;63.20;;;;;;5092843;28;19916;-74
2023/05/07 11:20:43;;;;;;;;;;;11.30;63.30;;;;;;5075091;28;19936;-73
2023/05/07 11:23:30;;;;;;;;;;;11.20;63.40;;;;;;5065799;28;19971;-73
2023/05/07 11:26:00;;;;;;;;;;;11.20;66.40;;;;;;5072491;28;19915;-73
2023/05/07 11:28:53;;;;;;;;;;;11.00;70.10;;;;;;5054844;28;19968;-74
2023/05/07 11:31:24;;;;;;;;;;;10.80;72.40;;;;;;5049166;28;19919;-74
2023/05/07 11:33:51;;;;;;;;;;;10.60;73.00;;;;;;5090207;28;19919;-73
2023/05/07 11:36:19;;;;;;;;;;;10.40;74.30;;;;;;5082473;28;19927;-73
2023/05/07 11:38:46;;;;;;;;;;;10.30;76.20;;;;;;5090497;28;19912;-73
2023/05/07 11:41:12;;;;;;;;;;;10.20;77.60;;;;;;5088406;28;19948;-73
2023/05/07 11:43:41;;;;;;;;;;;10.20;76.90;;;;;;5058999;28;19927;-73
2023/05/07 11:46:11;;;;;;;;;;;10.00;77.80;;;;;;5088306;28;20354;-73
2023/05/07 11:48:38;;;;;;;;;;;10.00;78.10;;;;;;5067556;28;19913;-73
2023/05/07 11:51:05;;;;;;;;;;;9.90;78.70;;;;;;5064674;28;19912;-73
2023/05/07 11:53:36;;;;;;;;;;;9.70;78.70;;;;;;5066129;28;19912;-72
2023/05/07 11:56:09;;;;;;;;;;;9.70;78.80;;;;;;5066456;28;20031;-71
2023/05/07 11:58:36;;;;;;;;;;;9.60;80.80;;;;;;5070319;28;19919;-72
2023/05/07 12:01:03;;;;;;;;;;;9.60;81.50;;;;;;5087475;28;19947;-72
2023/05/07 12:03:29;;;;;;;;;;;9.50;83.80;;;;;;5073684;28;19985;-73
2023/05/07 12:05:56;;;;;;;;;;;9.30;86.00;;;;;;5097417;28;19915;-74
2023/05/07 12:08:23;;;;;;;;;;;9.10;87.80;;;;;;5072001;28;20003;-74
2023/05/07 12:10:50;;;;;;;;;;;8.90;89.20;;;;;;5071809;28;20361;-76
2023/05/07 12:13:21;;;;;;;;;;;8.80;90.60;;;;;;5072040;28;19909;-77
2023/05/07 12:15:56;;;;;;;;;;;8.60;91.20;;;;;;5071793;28;19955;-77
2023/05/07 12:18:23;;;;;;;;;;;8.60;91.60;;;;;;5072966;28;20008;-77
2023/05/07 12:20:50;;;;;;;;;;;8.60;92.10;;;;;;5071643;28;20365;-76
2023/05/07 12:23:17;;;;;;;;;;;8.60;92.20;;;;;;5065478;28;20263;-77
2023/05/07 12:25:46;;;;;;;;;;;8.60;92.30;;;;;;5073218;28;19934;-77
2023/05/07 12:28:15;;;;;;;;;;;8.60;92.30;;;;;;5090989;28;19912;-76
2023/05/07 12:30:42;;;;;;;;;;;8.60;92.40;;;;;;5091876;28;19915;-78
2023/05/07 12:33:09;;;;;;;;;;;8.70;92.70;;;;;;5091851;28;19947;-78
2023/05/07 12:35:42;;;;;;;;;;;8.70;92.90;;;;;;5057257;28;19912;-79
2023/05/07 12:38:12;;;;;;;;;;;8.70;92.80;;;;;;5082627;28;20515;-78
2023/05/07 12:40:39;;;;;;;;;;;8.60;92.90;;;;;;5082376;28;19912;-78
2023/05/07 12:43:06;;;;;;;;;;;8.60;92.90;;;;;;5100837;28;19919;-78
2023/05/07 12:45:42;;;;;;;;;;;8.60;93.00;;;;;;5094134;28;19965;-77
2023/05/07 12:48:10;;;;;;;;;;;8.70;93.20;;;;;;5091808;28;19912;-77
2023/05/07 12:50:36;;;;;;;;;;;8.60;93.00;;;;;;5112296;28;19908;-76
2023/05/07 12:53:07;;;;;;;;;;;8.60;93.00;;;;;;5104295;28;19965;-77
2023/05/07 12:55:44;;;;;;;;;;;8.60;92.70;;;;;;5092112;28;20325;-76
2023/05/07 12:58:17;;;;;;;;;;;8.60;93.10;;;;;;5091866;28;19965;-76
2023/05/07 13:00:44;;;;;;;;;;;8.60;93.00;;;;;;5092885;28;20401;-76
2023/05/07 13:03:11;;;;;;;;;;;8.60;93.00;;;;;;5074125;28;19966;-76
2023/05/07 13:05:37;;;;;;;;;;;8.50;93.00;;;;;;5091068;28;19922;-77
2023/05/07 13:08:05;;;;;;;;;;;8.60;93.30;;;;;;5091559;28;19908;-77
2023/05/07 13:10:33;;;;;;;;;;;8.60;93.20;;;;;;5091474;28;19908;-76
2023/05/07 13:13:00;;;;;;;;;;;8.60;93.30;;;;;;5090030;28;20367;-76
2023/05/07 13:15:27;;;;;;;;;;;8.60;93.40;;;;;;5092167;28;20355;-76
2023/05/07 13:17:54;;;;;;;;;;;8.60;93.40;;;;;;5094777;28;19920;-76
2023/05/07 13:20:20;;;;;;;;;;;8.70;93.60;;;;;;5095123;28;19937;-76
2023/05/07 13:22:47;;;;;;;;;;;8.70;93.20;;;;;;5095236;28;20366;-76
2023/05/07 13:25:14;;;;;;;;;;;8.70;93.10;;;;;;5095191;28;19908;-76
2023/05/07 13:27:41;;;;;;;;;;;8.70;93.00;;;;;;5094644;28;19915;-76
2023/05/07 13:30:07;;;;;;;;;;;8.70;93.20;;;;;;5097136;28;20353;-75
2023/05/07 13:32:34;;;;;;;;;;;8.70;92.90;;;;;;5106410;28;19913;-75
2023/05/07 13:35:01;;;;;;;;;;;8.70;93.10;;;;;;5106868;28;20370;-75
2023/05/07 13:37:28;;;;;;;;;;;8.70;93.10;;;;;;5100094;28;19927;-75
2023/05/07 13:39:55;;;;;;;;;;;8.70;93.20;;;;;;5113202;28;20388;-74
2023/05/07 13:42:21;;;;;;;;;;;8.70;92.90;;;;;;5095045;28;19977;-75
2023/05/07 13:44:48;;;;;;;;;;;8.70;92.80;;;;;;5099337;28;20408;-75
2023/05/07 13:47:15;;;;;;;;;;;8.70;92.80;;;;;;5094623;28;19912;-75
2023/05/07 13:49:42;;;;;;;;;;;8.70;92.80;;;;;;5115094;28;19916;-74
2023/05/07 13:52:08;;;;;;;;;;;8.70;93.00;;;;;;5112970;28;19969;-74
2023/05/07 13:54:35;;;;;;;;;;;8.80;92.90;;;;;;5115376;28;20407;-75
2023/05/07 13:57:02;;;;;;;;;;;8.80;92.70;;;;;;5107253;28;19920;-74
2023/05/07 13:59:29;;;;;;;;;;;8.80;92.90;;;;;;5093276;28;20211;-74
2023/05/07 14:01:55;;;;;;;;;;;8.90;92.70;;;;;;5104915;28;20363;-74
2023/05/07 14:04:22;;;;;;;;;;;8.90;92.40;;;;;;5108001;28;20010;-74
2023/05/07 14:06:49;;;;;;;;;;;8.90;92.40;;;;;;5091594;28;20297;-74
2023/05/07 14:09:15;;;;;;;;;;;8.90;92.20;;;;;;5107181;28;19916;-73
2023/05/07 14:11:42;;;;;;;;;;;9.00;92.10;;;;;;5112874;28;19912;-74
2023/05/07 14:14:11;;;;;;;;;;;9.00;92.20;;;;;;5112186;28;19911;-74
2023/05/07 14:16:38;;;;;;;;;;;9.00;92.40;;;;;;5111428;28;19916;-72
2023/05/07 14:19:05;;;;;;;;;;;9.10;92.30;;;;;;5094628;28;20541;-74
2023/05/07 14:21:32;;;;;;;;;;;9.10;92.10;;;;;;5107740;28;19926;-73
2023/05/07 14:23:59;;;;;;;;;;;9.10;91.70;;;;;;5112285;28;20432;-73
2023/05/07 14:26:26;;;;;;;;;;;9.10;91.50;;;;;;5109649;28;20054;-73
2023/05/07 14:28:54;;;;;;;;;;;9.10;91.50;;;;;;5092207;28;19913;-73
2023/05/07 14:31:21;;;;;;;;;;;9.10;91.80;;;;;;5093349;28;19908;-73
2023/05/07 14:33:49;;;;;;;;;;;9.20;91.70;;;;;;5093536;28;20289;-73
2023/05/07 14:36:16;;;;;;;;;;;9.20;91.80;;;;;;5093109;28;19962;-73
2023/05/07 14:38:43;;;;;;;;;;;9.20;91.80;;;;;;5093830;28;19912;-73
2023/05/07 14:41:10;;;;;;;;;;;9.20;91.80;;;;;;5093274;28;19940;-73
2023/05/07 14:43:37;;;;;;;;;;;9.20;91.80;;;;;;5092783;28;19935;-73
2023/05/07 14:46:04;;;;;;;;;;;9.20;91.30;;;;;;5093934;28;20003;-73
2023/05/07 14:48:30;;;;;;;;;;;9.30;91.30;;;;;;5075117;28;19918;-74
2023/05/07 14:50:57;;;;;;;;;;;9.20;91.10;;;;;;5092958;28;19999;-73
2023/05/07 14:53:24;;;;;;;;;;;9.30;91.40;;;;;;5093025;28;19908;-72
2023/05/07 14:55:51;;;;;;;;;;;9.30;91.40;;;;;;5100938;28;19908;-73
2023/05/07 14:58:17;;;;;;;;;;;9.30;91.20;;;;;;5112040;28;19914;-73
2023/05/07 15:00:44;;;;;;;;;;;9.40;91.20;;;;;;5106319;28;19919;-73
2023/05/07 15:03:11;;;;;;;;;;;9.30;90.30;;;;;;5107183;28;19916;-73
2023/05/07 15:05:38;;;;;;;;;;;9.40;89.80;;;;;;5097091;28;19994;-72
2023/05/07 15:08:05;;;;;;;;;;;9.40;89.40;;;;;;5111575;28;20090;-73
2023/05/07 15:10:32;;;;;;;;;;;9.40;88.30;;;;;;5105610;28;20278;-73
2023/05/07 15:12:58;;;;;;;;;;;9.40;88.00;;;;;;5108592;28;19942;-73
2023/05/07 15:15:26;;;;;;;;;;;9.40;87.90;;;;;;5104162;28;19918;-73
2023/05/07 15:42:19;;;;;;;;;;;9.70;83.30;;;;;;5097441;28;20396;-73
2023/05/07 15:44:46;;;;;;;;;;;9.70;81.80;;;;;;5108609;28;20073;-73
2023/05/07 15:47:14;;;;;;;;;;;9.70;81.50;;;;;;5108892;28;19918;-73
2023/05/07 15:49:41;;;;;;;;;;;9.80;79.20;;;;;;5108596;28;19912;-73
2023/05/07 15:52:10;;;;;;;;;;;9.80;80.20;;;;;;5110918;28;19985;-73
2023/05/07 15:54:40;;;;;;;;;;;9.80;79.00;;;;;;5103586;28;20273;-73
2023/05/07 15:57:11;;;;;;;;;;;9.80;78.70;;;;;;5110019;28;20449;-73
2023/05/07 15:59:37;;;;;;;;;;;9.90;77.80;;;;;;5100476;28;19916;-73
2023/05/07 16:02:04;;;;;;;;;;;9.90;77.30;;;;;;5086600;28;20011;-73
2023/05/07 16:04:31;;;;;;;;;;;9.90;79.10;;;;;;5098647;28;19915;-73
2023/05/07 16:06:58;;;;;;;;;;;10.00;78.00;;;;;;5106850;28;19916;-73
2023/05/07 16:09:26;;;;;;;;;;;10.00;78.10;;;;;;5108418;28;19939;-74
2023/05/07 16:11:52;;;;;;;;;;;10.00;77.60;;;;;;5105909;28;20377;-74
2023/05/07 16:14:19;;;;;;;;;;;10.00;76.20;;;;;;5097920;28;19916;-76
2023/05/07 16:16:46;;;;;;;;;;;10.00;77.30;;;;;;5095127;28;19931;-75
2023/05/07 16:19:12;;;;;;;;;;;10.10;77.30;;;;;;5107294;28;19947;-75
2023/05/07 16:21:39;;;;;;;;;;;10.00;76.70;;;;;;5106989;28;19912;-76
2023/05/07 16:24:06;;;;;;;;;;;10.10;77.90;;;;;;5101188;28;19912;-76
2023/05/07 16:26:33;;;;;;;;;;;10.10;75.70;;;;;;5104992;28;19916;-76
2023/05/07 16:29:00;;;;;;;;;;;10.10;75.70;;;;;;5105502;28;19994;-76
2023/05/07 16:31:27;;;;;;;;;;;10.10;77.00;;;;;;5084571;28;20393;-76
2023/05/07 16:33:54;;;;;;;;;;;10.10;75.80;;;;;;5110656;28;19919;-76
2023/05/07 16:36:21;;;;;;;;;;;10.20;76.50;;;;;;5111999;28;19927;-75
2023/05/07 16:38:47;;;;;;;;;;;10.20;75.50;;;;;;5095492;28;19949;-75
2023/05/07 16:41:14;;;;;;;;;;;10.20;76.10;;;;;;5091675;28;19924;-75
2023/05/07 16:43:41;;;;;;;;;;;10.20;74.50;;;;;;5100237;28;19912;-76
2023/05/07 16:46:07;;;;;;;;;;;10.20;71.70;;;;;;5091475;28;19958;-76
2023/05/07 16:48:34;;;;;;;;;;;10.20;73.10;;;;;;5091955;28;19912;-75
2023/05/07 16:51:01;;;;;;;;;;;10.20;73.90;;;;;;5095655;28;19908;-75
2023/05/07 16:53:27;;;;;;;;;;;10.20;72.10;;;;;;5098820;28;19957;-75
2023/05/07 16:55:55;;;;;;;;;;;10.30;72.90;;;;;;5098362;28;20349;-75
2023/05/07 16:58:22;;;;;;;;;;;10.30;70.60;;;;;;5095635;28;19923;-75
2023/05/07 17:00:48;;;;;;;;;;;10.30;70.00;;;;;;5095618;28;20282;-75
2023/05/07 17:03:15;;;;;;;;;;;10.30;71.20;;;;;;5109606;28;19912;-76
2023/05/07 17:05:42;;;;;;;;;;;10.40;71.10;;;;;;5108086;28;19920;-75
2023/05/07 17:08:09;;;;;;;;;;;10.30;69.50;;;;;;5092072;28;19916;-76
2023/05/07 17:10:35;;;;;;;;;;;10.40;68.30;;;;;;5112669;28;20254;-74
2023/05/07 17:13:02;;;;;;;;;;;10.40;67.40;;;;;;5112990;28;19916;-75
2023/05/07 17:15:29;;;;;;;;;;;10.40;66.60;;;;;;5113475;28;20230;-75
2023/05/07 17:17:55;;;;;;;;;;;10.50;68.20;;;;;;5103059;28;19923;-76
2023/05/07 17:20:23;;;;;;;;;;;10.50;66.70;;;;;;5100838;28;20006;-75
2023/05/07 17:22:50;;;;;;;;;;;10.50;64.80;;;;;;5104014;28;20361;-75
2023/05/07 17:25:17;;;;;;;;;;;10.60;65.40;;;;;;5106370;28;19912;-76
2023/05/07 17:27:44;;;;;;;;;;;10.50;65.20;;;;;;5101022;28;20330;-75
2023/05/07 17:30:11;;;;;;;;;;;10.60;65.80;;;;;;5095424;28;20354;-75
2023/05/07 17:32:38;;;;;;;;;;;10.60;65.60;;;;;;5104009;28;20281;-75
2023/05/07 17:35:05;;;;;;;;;;;10.60;63.30;;;;;;5113151;28;19916;-75
2023/05/07 17:37:31;;;;;;;;;;;10.70;63.40;;;;;;5113335;28;19966;-76
2023/05/07 17:39:58;;;;;;;;;;;10.60;63.80;;;;;;5109417;28;19919;-75
2023/05/07 17:42:25;;;;;;;;;;;10.70;62.90;;;;;;5093994;28;19930;-75
2023/05/07 17:44:51;;;;;;;;;;;10.70;63.90;;;;;;5108069;28;19912;-75
2023/05/07 17:47:18;;;;;;;;;;;10.70;63.10;;;;;;5104296;28;20004;-74
2023/05/07 17:49:45;;;;;;;;;;;10.70;62.60;;;;;;5097242;28;20363;-74
2023/05/07 17:52:12;;;;;;;;;;;10.70;62.10;;;;;;5111774;28;20010;-74
2023/05/07 17:54:39;;;;;;;;;;;10.70;61.60;;;;;;5111742;28;19947;-74
2023/05/07 17:57:05;;;;;;;;;;;10.70;61.70;;;;;;5105139;28;19963;-73
2023/05/07 17:59:32;;;;;;;;;;;10.70;61.10;;;;;;5094468;28;20002;-74
2023/05/07 18:01:59;;;;;;;;;;;10.70;62.40;;;;;;5106629;28;19916;-74
2023/05/07 18:04:27;;;;;;;;;;;10.70;61.60;;;;;;5101132;28;20057;-74
2023/05/07 18:06:53;;;;;;;;;;;10.70;61.40;;;;;;5104519;28;19919;-74
2023/05/07 18:09:20;;;;;;;;;;;10.70;61.50;;;;;;5110549;28;20369;-74
2023/05/07 18:11:47;;;;;;;;;;;10.70;61.10;;;;;;5103149;28;19916;-74
2023/05/07 18:14:14;;;;;;;;;;;10.70;60.90;;;;;;5104211;28;20397;-74
2023/05/07 18:16:40;;;;;;;;;;;10.70;61.30;;;;;;5103650;28;20010;-74
2023/05/07 18:19:08;;;;;;;;;;;10.70;61.30;;;;;;5113266;28;19919;-74
2023/05/07 18:21:34;;;;;;;;;;;10.70;60.50;;;;;;5112636;28;19911;-74
2023/05/07 18:24:01;;;;;;;;;;;10.70;60.90;;;;;;5096133;28;19912;-74
2023/05/07 18:26:28;;;;;;;;;;;10.70;60.50;;;;;;5106924;28;20366;-74
2023/05/07 18:28:54;;;;;;;;;;;10.70;60.30;;;;;;5073923;28;19927;-74
2023/05/07 18:31:21;;;;;;;;;;;10.70;60.00;;;;;;5087710;28;19912;-74
2023/05/07 18:33:50;;;;;;;;;;;10.70;60.40;;;;;;5113781;28;19912;-74
2023/05/07 18:36:17;;;;;;;;;;;10.60;60.90;;;;;;5094187;28;19935;-74
2023/05/07 18:38:43;;;;;;;;;;;10.60;60.20;;;;;;5109302;28;19912;-74
2023/05/07 18:41:10;;;;;;;;;;;10.60;60.10;;;;;;5109681;28;19915;-74
2023/05/07 18:43:37;;;;;;;;;;;10.70;59.50;;;;;;5114155;28;19972;-74
2023/05/07 18:46:04;;;;;;;;;;;10.70;60.10;;;;;;5097000;28;19912;-74
2023/05/07 18:48:31;;;;;;;;;;;10.70;59.90;;;;;;5100112;28;19912;-73
2023/05/07 18:50:58;;;;;;;;;;;10.70;59.60;;;;;;5095752;28;19912;-73
2023/05/07 18:53:25;;;;;;;;;;;10.70;59.70;;;;;;5113786;28;19912;-73
2023/05/07 18:55:52;;;;;;;;;;;10.70;60.00;;;;;;5096752;28;19970;-73
2023/05/07 18:58:18;;;;;;;;;;;10.70;59.60;;;;;;5084945;28;20003;-73
2023/05/07 19:00:46;;;;;;;;;;;10.70;58.80;;;;;;5101009;28;19912;-73
2023/05/07 19:03:16;;;;;;;;;;;10.70;59.20;;;;;;5097072;28;19920;-73
2023/05/07 19:05:43;;;;;;;;;;;10.70;58.40;;;;;;5109500;28;19922;-73
2023/05/07 19:08:09;;;;;;;;;;;10.70;58.90;;;;;;5102835;28;19922;-73
2023/05/07 19:10:36;;;;;;;;;;;10.70;59.50;;;;;;5098511;28;19912;-73
2023/05/07 19:13:03;;;;;;;;;;;10.70;58.70;;;;;;5104374;28;19915;-73
2023/05/07 19:15:30;;;;;;;;;;;10.70;57.70;;;;;;5093043;28;19962;-73
2023/05/07 19:17:56;;;;;;;;;;;10.80;58.90;;;;;;5095289;28;19989;-75
2023/05/07 19:20:23;;;;;;;;;;;10.80;58.20;;;;;;5095395;28;19916;-72
2023/05/07 19:22:50;;;;;;;;;;;10.80;58.30;;;;;;5103853;28;19912;-72
2023/05/07 20:45:16;;;;;;;;;;;11.00;58.00;;;;;;5085142;28;20086;-73
2023/05/07 20:47:42;;;;;;;;;;;10.90;57.10;;;;;;5061995;28;19919;-73
2023/05/07 20:50:09;;;;;;;;;;;10.90;58.30;;;;;;5073006;28;19913;-73
2023/05/07 20:52:36;;;;;;;;;;;10.90;57.70;;;;;;5059560;28;19913;-74
2023/05/07 20:55:03;;;;;;;;;;;10.90;57.70;;;;;;5073131;28;19912;-74
2023/05/07 20:57:30;;;;;;;;;;;10.90;58.50;;;;;;5057103;28;20399;-72
2023/05/07 20:59:56;;;;;;;;;;;10.90;58.90;;;;;;5075390;28;19909;-73
2023/05/07 21:02:23;;;;;;;;;;;10.90;58.00;;;;;;5074954;28;19920;-71
2023/05/07 21:04:51;;;;;;;;;;;10.90;57.80;;;;;;5075037;28;20002;-73
2023/05/07 21:07:17;;;;;;;;;;;10.80;57.30;;;;;;5075279;28;19930;-73
2023/05/07 21:09:44;;;;;;;;;;;10.90;57.70;;;;;;5075694;28;19931;-73
2023/05/07 21:12:11;;;;;;;;;;;10.80;57.90;;;;;;5073706;28;19980;-73
2023/05/07 21:14:39;;;;;;;;;;;10.90;58.10;;;;;;5074889;28;19912;-73
2023/05/07 21:17:06;;;;;;;;;;;10.80;58.10;;;;;;5074881;28;19968;-73
2023/05/07 21:19:33;;;;;;;;;;;10.80;58.70;;;;;;5074799;28;19908;-73
2023/05/07 21:21:59;;;;;;;;;;;10.90;59.20;;;;;;5075236;28;19915;-75
2023/05/07 21:24:26;;;;;;;;;;;10.90;59.50;;;;;;5075006;28;19912;-72
2023/05/07 21:26:54;;;;;;;;;;;10.80;57.60;;;;;;5075383;28;19914;-72
2023/05/07 21:29:21;;;;;;;;;;;10.90;58.50;;;;;;5074759;28;19913;-72
2023/05/07 21:31:48;;;;;;;;;;;10.80;57.80;;;;;;5056741;28;19923;-72
2023/05/07 21:34:14;;;;;;;;;;;10.90;58.30;;;;;;5090473;28;19912;-73
2023/05/07 21:36:41;;;;;;;;;;;10.90;57.60;;;;;;5054859;28;20460;-73
2023/05/07 21:39:08;;;;;;;;;;;10.80;57.90;;;;;;5074875;28;19913;-73
2023/05/07 21:41:35;;;;;;;;;;;10.90;57.60;;;;;;5073806;28;20520;-72
2023/05/07 23:41:07;;;;;;;;;;;12.00;53.80;;;;;;5066034;28;19935;-75
2023/05/07 23:43:37;;;;;;;;;;;12.00;54.90;;;;;;5075449;28;19916;-75
2023/05/07 23:46:04;;;;;;;;;;;12.10;55.40;;;;;;5090594;28;19912;-74
2023/05/07 23:48:31;;;;;;;;;;;12.10;56.10;;;;;;5084807;28;19920;-72
2023/05/07 23:50:57;;;;;;;;;;;12.20;54.00;;;;;;5074788;28;20346;-71
2023/05/07 23:53:24;;;;;;;;;;;12.20;53.40;;;;;;5087030;28;19923;-72
2023/05/07 23:55:51;;;;;;;;;;;12.20;53.70;;;;;;5088289;28;19916;-71
2023/05/07 23:58:18;;;;;;;;;;;12.20;54.90;;;;;;5087753;28;19923;-70
